Time;durP1;ratioP1;P1;durP2;ratioP2;P2;SDS_P1;SDS_P2;PMS_P1;PMS_P2;Temp;Humidity;BMP_temperature;BMP_pressure;BME280_temperature;BME280_humidity;BME280_pressure;Samples;Min_cycle;Max_cycle;Signal;HPM_P1;HPM_P2
2023/04/07 00:01:14;;;;;;;14.97;12.07;;;0.70;99.90;;;;;;4877598;29;20470;-75
2023/04/07 00:03:43;;;;;;;17.20;12.70;;;0.70;99.90;;;;;;4880758;29;20955;-75
2023/04/07 00:06:12;;;;;;;18.63;12.67;;;0.70;99.90;;;;;;4881697;29;20455;-74
2023/04/07 00:08:40;;;;;;;15.77;12.43;;;0.60;99.90;;;;;;4881854;29;20462;-74
2023/04/07 00:11:08;;;;;;;17.93;12.60;;;0.70;99.90;;;;;;4881375;29;20995;-76
2023/04/07 00:13:37;;;;;;;16.73;12.53;;;0.60;99.90;;;;;;4881139;29;20459;-74
2023/04/07 00:16:05;;;;;;;15.80;11.73;;;0.80;99.90;;;;;;4881560;29;20783;-76
2023/04/07 00:18:34;;;;;;;15.53;11.47;;;0.80;99.90;;;;;;4881570;29;20475;-74
2023/04/07 00:21:03;;;;;;;15.07;11.07;;;0.90;99.90;;;;;;4881109;29;20465;-76
2023/04/07 00:23:31;;;;;;;14.63;12.73;;;0.90;99.90;;;;;;4881054;29;20545;-76
2023/04/07 00:25:59;;;;;;;18.03;12.17;;;0.90;99.90;;;;;;4881056;29;20485;-75
2023/04/07 00:28:27;;;;;;;18.40;13.13;;;0.90;99.90;;;;;;4881174;29;20461;-77
2023/04/07 00:30:55;;;;;;;18.47;12.93;;;0.90;99.90;;;;;;4880930;29;20496;-74
2023/04/07 00:33:23;;;;;;;17.60;13.20;;;0.90;99.90;;;;;;4881116;29;20467;-75
2023/04/07 00:35:53;;;;;;;15.57;12.73;;;0.80;99.90;;;;;;4881155;29;20470;-74
2023/04/07 00:38:23;;;;;;;15.63;12.63;;;0.80;99.90;;;;;;4884438;29;20477;-74
2023/04/07 00:40:58;;;;;;;17.00;12.50;;;0.70;99.90;;;;;;4883841;29;20928;-74
2023/04/07 00:43:26;;;;;;;16.50;13.03;;;0.70;99.90;;;;;;4880824;29;20438;-75
2023/04/07 00:45:54;;;;;;;15.10;12.87;;;0.60;99.90;;;;;;4880652;29;20513;-74
2023/04/07 00:48:23;;;;;;;15.93;12.20;;;0.50;99.90;;;;;;4880934;29;20486;-74
2023/04/07 00:50:51;;;;;;;17.77;13.20;;;0.50;99.90;;;;;;4897008;29;20581;-75
2023/04/07 00:53:20;;;;;;;16.00;12.80;;;0.50;99.90;;;;;;4889322;29;20872;-75
2023/04/07 00:55:49;;;;;;;17.37;13.60;;;0.50;99.90;;;;;;4880601;29;20470;-74
2023/04/07 00:58:17;;;;;;;16.07;13.10;;;0.40;99.90;;;;;;4880416;29;20465;-74
2023/04/07 01:00:51;;;;;;;19.07;13.80;;;0.40;99.90;;;;;;4880711;29;20459;-74
2023/04/07 01:03:25;;;;;;;15.47;13.30;;;0.40;99.90;;;;;;4880625;29;20505;-76
2023/04/07 01:05:58;;;;;;;17.83;13.37;;;0.40;99.90;;;;;;4880631;29;20442;-74
2023/04/07 01:08:33;;;;;;;17.07;12.73;;;0.40;99.90;;;;;;4882110;29;20915;-75
2023/04/07 01:11:08;;;;;;;17.10;13.13;;;0.30;99.90;;;;;;4886935;29;21047;-75
2023/04/07 01:13:38;;;;;;;16.03;13.33;;;0.30;99.90;;;;;;4880065;29;20441;-74
2023/04/07 01:16:13;;;;;;;16.33;13.07;;;0.30;99.90;;;;;;4880371;29;20444;-75
2023/04/07 01:18:42;;;;;;;17.00;13.30;;;0.30;99.90;;;;;;4879848;29;20473;-73
2023/04/07 01:21:15;;;;;;;15.83;11.93;;;0.30;99.90;;;;;;4880208;29;20450;-73
2023/04/07 01:24:03;;;;;;;16.37;12.23;;;0.40;99.90;;;;;;4880318;29;20440;-73
2023/04/07 01:26:33;;;;;;;15.00;12.30;;;0.50;99.90;;;;;;4874839;29;20455;-75
2023/04/07 01:29:30;;;;;;;15.67;11.00;;;0.60;99.90;;;;;;4881722;29;20913;-74
2023/04/07 01:32:01;;;;;;;16.17;11.40;;;0.70;99.90;;;;;;4880794;29;20549;-75
2023/04/07 01:34:31;;;;;;;14.43;10.37;;;0.90;99.90;;;;;;4881018;29;20434;-74
2023/04/07 01:37:02;;;;;;;14.03;10.97;;;0.90;99.90;;;;;;4880781;29;20471;-76
2023/04/07 01:39:31;;;;;;;14.50;10.73;;;1.00;99.90;;;;;;4880733;29;20466;-73
2023/04/07 01:42:05;;;;;;;14.30;10.80;;;1.10;99.90;;;;;;4880579;29;20894;-76
2023/04/07 01:44:35;;;;;;;14.77;10.97;;;1.20;99.90;;;;;;4880490;29;20467;-74
2023/04/07 01:47:04;;;;;;;12.80;10.20;;;1.30;99.90;;;;;;4881003;29;20475;-74
2023/04/07 01:49:33;;;;;;;13.50;10.03;;;1.20;99.90;;;;;;4897492;29;20460;-74
2023/04/07 01:52:02;;;;;;;17.70;11.03;;;1.30;99.90;;;;;;4899275;29;20489;-75
2023/04/07 01:54:31;;;;;;;15.63;10.60;;;1.30;99.90;;;;;;4898330;29;20488;-75
2023/04/07 01:57:00;;;;;;;13.13;10.60;;;1.20;99.90;;;;;;4881763;29;20455;-75
2023/04/07 01:59:28;;;;;;;15.37;10.57;;;1.20;99.90;;;;;;4880779;29;20813;-77
2023/04/07 02:01:58;;;;;;;14.13;10.70;;;1.10;99.90;;;;;;4880444;29;20594;-75
2023/04/07 02:04:30;;;;;;;13.90;10.47;;;1.10;99.90;;;;;;4879513;29;20470;-73
2023/04/07 02:07:05;;;;;;;13.20;10.63;;;1.10;99.90;;;;;;4880179;29;20466;-75
2023/04/07 02:09:34;;;;;;;12.87;10.70;;;1.00;99.90;;;;;;4879637;29;20284;-74
2023/04/07 02:12:05;;;;;;;14.03;10.30;;;0.90;99.90;;;;;;4880953;29;20498;-74
2023/04/07 02:14:34;;;;;;;14.00;10.90;;;0.90;99.90;;;;;;4895911;29;20470;-73
2023/04/07 02:17:09;;;;;;;12.83;10.43;;;0.90;99.90;;;;;;4898143;29;20459;-74
2023/04/07 02:19:38;;;;;;;12.50;9.50;;;0.90;99.90;;;;;;4898546;29;20545;-75
2023/04/07 02:22:07;;;;;;;11.67;9.93;;;0.90;99.90;;;;;;4884225;29;20471;-75
2023/04/07 02:24:35;;;;;;;13.57;10.70;;;0.80;99.90;;;;;;4878632;29;20451;-74
2023/04/07 02:27:07;;;;;;;12.83;9.87;;;0.80;99.90;;;;;;4879045;29;20461;-75
2023/04/07 02:29:35;;;;;;;14.00;10.23;;;0.70;99.90;;;;;;4878950;29;20500;-75
2023/04/07 02:32:03;;;;;;;13.73;9.97;;;0.70;99.90;;;;;;4879084;29;20538;-75
2023/04/07 02:34:33;;;;;;;12.60;9.47;;;0.60;99.90;;;;;;4879581;29;20486;-75
2023/04/07 02:37:01;;;;;;;13.70;9.70;;;0.60;99.90;;;;;;4879251;29;20451;-74
2023/04/07 02:39:29;;;;;;;13.60;9.80;;;0.60;99.90;;;;;;4878868;29;20483;-74
2023/04/07 02:41:57;;;;;;;13.00;9.13;;;0.60;99.90;;;;;;4882542;29;20450;-76
2023/04/07 02:44:25;;;;;;;13.87;10.23;;;0.60;99.90;;;;;;4880459;29;20462;-73
2023/04/07 02:46:53;;;;;;;11.93;9.07;;;0.60;99.90;;;;;;4886405;29;20509;-74
2023/04/07 02:49:21;;;;;;;13.93;10.07;;;0.60;99.90;;;;;;4888939;29;20470;-73
2023/04/07 02:51:51;;;;;;;11.90;8.97;;;0.60;99.90;;;;;;4878678;29;20486;-75
2023/04/07 02:54:19;;;;;;;12.67;9.47;;;0.60;99.90;;;;;;4878615;29;20953;-75
2023/04/07 02:56:47;;;;;;;12.13;9.67;;;0.60;99.90;;;;;;4878881;29;20548;-75
2023/04/07 02:59:15;;;;;;;10.77;9.07;;;0.60;99.90;;;;;;4878576;29;20510;-75
2023/04/07 03:01:43;;;;;;;12.27;9.63;;;0.60;99.90;;;;;;4878421;29;20447;-75
2023/04/07 03:04:12;;;;;;;13.87;9.83;;;0.60;99.90;;;;;;4878727;29;20494;-75
2023/04/07 03:06:40;;;;;;;11.53;8.93;;;0.60;99.90;;;;;;4878830;29;20550;-75
2023/04/07 03:09:09;;;;;;;13.27;9.60;;;0.50;99.90;;;;;;4878454;29;20478;-75
2023/04/07 03:11:37;;;;;;;14.07;8.80;;;0.50;99.90;;;;;;4882637;29;20580;-75
2023/04/07 03:14:05;;;;;;;10.63;8.53;;;0.50;99.90;;;;;;4887778;29;20472;-76
2023/04/07 03:16:33;;;;;;;10.90;8.57;;;0.50;99.90;;;;;;4897054;29;20470;-75
2023/04/07 03:19:01;;;;;;;12.47;9.40;;;0.50;99.90;;;;;;4897239;29;20511;-74
2023/04/07 03:21:30;;;;;;;14.53;9.23;;;0.40;99.90;;;;;;4889351;29;20499;-75
2023/04/07 03:23:58;;;;;;;10.97;8.93;;;0.40;99.90;;;;;;4878267;29;20464;-73
2023/04/07 03:26:28;;;;;;;12.60;8.90;;;0.30;99.90;;;;;;4878535;29;20545;-76
2023/04/07 03:28:56;;;;;;;11.07;8.70;;;0.30;99.90;;;;;;4878377;29;20459;-75
2023/04/07 03:31:24;;;;;;;9.80;8.20;;;0.30;99.90;;;;;;4889087;29;20496;-75
2023/04/07 03:33:52;;;;;;;13.20;9.13;;;0.30;99.90;;;;;;4897259;29;20449;-73
2023/04/07 03:36:21;;;;;;;11.53;8.83;;;0.30;99.90;;;;;;4897882;29;20963;-75
2023/04/07 03:38:49;;;;;;;11.80;9.03;;;0.20;99.90;;;;;;4901069;29;20548;-74
2023/04/07 03:41:17;;;;;;;10.40;8.80;;;0.20;99.90;;;;;;4886127;29;20478;-75
2023/04/07 03:43:47;;;;;;;11.23;9.20;;;0.20;99.90;;;;;;4881834;29;20482;-74
2023/04/07 03:46:15;;;;;;;11.33;8.73;;;0.20;99.90;;;;;;4894935;29;20923;-74
2023/04/07 03:48:43;;;;;;;11.10;9.13;;;0.20;99.90;;;;;;4891756;29;20470;-74
2023/04/07 03:51:11;;;;;;;11.50;8.63;;;0.20;99.90;;;;;;4881797;29;20794;-73
2023/04/07 03:53:41;;;;;;;10.53;8.57;;;0.20;99.90;;;;;;4880887;29;20461;-74
2023/04/07 03:56:09;;;;;;;11.47;8.63;;;0.30;99.90;;;;;;4881793;29;20446;-74
2023/04/07 03:58:37;;;;;;;11.27;8.77;;;0.20;99.90;;;;;;4881922;29;20572;-74
2023/04/07 04:01:06;;;;;;;11.13;8.40;;;0.30;99.90;;;;;;4881930;29;20477;-74
2023/04/07 04:03:35;;;;;;;10.30;8.37;;;0.30;99.90;;;;;;4881521;29;20514;-74
2023/04/07 04:06:04;;;;;;;11.80;9.63;;;0.30;99.90;;;;;;4881383;29;20478;-74
2023/04/07 04:08:32;;;;;;;12.23;8.47;;;0.30;99.90;;;;;;4889483;29;20463;-75
2023/04/07 04:11:00;;;;;;;11.27;8.87;;;0.30;99.90;;;;;;4900421;29;20982;-74
2023/04/07 04:13:28;;;;;;;12.33;8.67;;;0.30;99.90;;;;;;4899046;29;20482;-76
2023/04/07 04:15:56;;;;;;;11.30;8.37;;;0.30;99.90;;;;;;4881954;29;20451;-75
2023/04/07 04:18:26;;;;;;;11.30;8.70;;;0.40;99.90;;;;;;4881584;29;20459;-75
2023/04/07 04:20:55;;;;;;;10.03;8.27;;;0.40;99.90;;;;;;4881115;29;20474;-75
2023/04/07 04:23:23;;;;;;;9.63;8.13;;;0.40;99.90;;;;;;4880415;29;20980;-74
2023/04/07 04:25:51;;;;;;;10.10;8.13;;;0.40;99.90;;;;;;4880928;29;20959;-74
2023/04/07 04:28:19;;;;;;;10.63;8.73;;;0.40;99.90;;;;;;4880925;29;20461;-75
2023/04/07 04:30:47;;;;;;;10.63;8.43;;;0.40;99.90;;;;;;4881280;29;20488;-76
2023/04/07 04:33:15;;;;;;;13.27;9.70;;;0.40;99.90;;;;;;4880376;29;20503;-75
2023/04/07 04:35:45;;;;;;;13.17;10.80;;;0.50;99.90;;;;;;4880974;29;20463;-76
2023/04/07 04:38:13;;;;;;;15.30;9.90;;;0.50;99.90;;;;;;4881107;29;20463;-76
2023/04/07 04:40:42;;;;;;;12.73;10.23;;;0.50;99.90;;;;;;4880771;29;20565;-73
2023/04/07 04:43:10;;;;;;;13.40;8.87;;;0.50;99.90;;;;;;4880386;29;20549;-75
2023/04/07 04:45:38;;;;;;;11.67;8.80;;;0.60;99.90;;;;;;4899360;29;20898;-73
2023/04/07 04:48:06;;;;;;;12.00;8.30;;;0.60;99.90;;;;;;4898845;29;20518;-74
2023/04/07 04:50:35;;;;;;;10.60;8.70;;;0.80;99.90;;;;;;4892269;29;20569;-74
2023/04/07 04:53:04;;;;;;;13.07;9.10;;;0.90;99.90;;;;;;4880159;29;20494;-74
2023/04/07 04:55:39;;;;;;;13.87;8.77;;;1.00;99.90;;;;;;4880764;29;20486;-73
2023/04/07 04:58:07;;;;;;;11.97;8.47;;;1.10;99.90;;;;;;4880775;29;20434;-74
2023/04/07 05:00:35;;;;;;;12.10;8.40;;;1.20;99.90;;;;;;4880181;29;20485;-75
2023/04/07 05:03:03;;;;;;;11.00;8.47;;;1.40;99.90;;;;;;4880619;29;20455;-75
2023/04/07 05:05:31;;;;;;;10.90;7.90;;;1.60;99.90;;;;;;4880699;29;20514;-75
2023/04/07 05:07:59;;;;;;;9.40;7.70;;;1.70;99.90;;;;;;4882073;29;20619;-75
2023/04/07 05:10:29;;;;;;;11.10;8.27;;;1.80;99.90;;;;;;4881967;29;20467;-74
2023/04/07 05:12:57;;;;;;;8.80;7.53;;;1.90;99.90;;;;;;4880077;29;20245;-73
2023/04/07 05:15:25;;;;;;;10.17;7.47;;;2.00;99.90;;;;;;4880674;29;20301;-73
2023/04/07 05:17:53;;;;;;;9.57;7.77;;;2.10;99.90;;;;;;4880740;29;20238;-74
2023/04/07 05:20:21;;;;;;;10.30;7.90;;;2.20;99.90;;;;;;4888556;29;20214;-73
2023/04/07 05:22:49;;;;;;;12.87;7.63;;;2.30;99.90;;;;;;4880477;29;20233;-73
2023/04/07 05:25:18;;;;;;;9.43;7.83;;;2.40;99.90;;;;;;4880130;29;20312;-75
2023/04/07 05:27:47;;;;;;;10.67;8.43;;;2.50;99.90;;;;;;4880524;29;20615;-73
2023/04/07 05:30:15;;;;;;;11.03;8.30;;;2.60;99.90;;;;;;4880243;29;20695;-72
2023/04/07 05:32:44;;;;;;;12.20;8.23;;;2.70;99.90;;;;;;4880190;29;20285;-75
2023/04/07 05:35:12;;;;;;;11.57;8.73;;;2.70;99.90;;;;;;4880174;29;20221;-75
2023/04/07 05:37:40;;;;;;;10.83;8.80;;;2.70;99.90;;;;;;4880297;29;20217;-75
2023/04/07 05:40:09;;;;;;;10.27;8.37;;;2.80;99.90;;;;;;4880042;29;20214;-75
2023/04/07 05:42:37;;;;;;;12.27;8.57;;;2.90;99.90;;;;;;4886374;29;20214;-73
2023/04/07 05:45:08;;;;;;;11.20;7.70;;;3.00;99.90;;;;;;4898754;29;20305;-73
2023/04/07 05:47:36;;;;;;;9.97;7.90;;;3.10;99.90;;;;;;4898619;29;20208;-73
2023/04/07 05:50:05;;;;;;;11.27;8.10;;;3.20;99.90;;;;;;4898836;29;20224;-74
2023/04/07 05:52:33;;;;;;;9.57;7.27;;;3.30;99.90;;;;;;4883294;29;20238;-74
2023/04/07 05:55:01;;;;;;;10.20;7.50;;;3.40;99.90;;;;;;4879797;29;20760;-75
2023/04/07 05:57:29;;;;;;;9.80;7.37;;;3.60;99.90;;;;;;4879633;29;20705;-73
2023/04/07 05:59:58;;;;;;;11.63;7.90;;;3.70;99.90;;;;;;4881213;29;20301;-72
2023/04/07 06:02:27;;;;;;;12.90;7.90;;;3.80;99.90;;;;;;4879518;29;20266;-75
2023/04/07 06:04:56;;;;;;;9.60;7.53;;;4.00;99.90;;;;;;4880233;29;20222;-73
2023/04/07 06:07:24;;;;;;;10.33;7.40;;;4.10;99.90;;;;;;4881458;29;20244;-73
2023/04/07 06:09:52;;;;;;;10.73;7.70;;;4.20;99.90;;;;;;4887875;29;20281;-74
2023/04/07 06:12:20;;;;;;;9.53;8.07;;;4.20;99.90;;;;;;4897929;29;20244;-74
2023/04/07 06:14:53;;;;;;;10.10;7.83;;;4.30;99.90;;;;;;4902121;29;20225;-73
2023/04/07 06:17:22;;;;;;;10.23;7.93;;;4.30;99.90;;;;;;4899671;29;20308;-75
2023/04/07 06:19:51;;;;;;;9.23;7.10;;;4.30;99.90;;;;;;4883205;29;20229;-74
2023/04/07 06:22:20;;;;;;;8.73;6.83;;;4.30;99.90;;;;;;4879546;29;20218;-73
2023/04/07 06:24:48;;;;;;;9.60;7.50;;;4.40;99.90;;;;;;4879718;29;20218;-72
2023/04/07 06:27:17;;;;;;;10.57;7.73;;;4.40;99.90;;;;;;4879365;29;20301;-73
2023/04/07 06:29:45;;;;;;;10.50;7.17;;;4.30;99.90;;;;;;4879332;29;20737;-75
2023/04/07 06:32:13;;;;;;;9.37;7.33;;;4.30;99.90;;;;;;4879313;29;20214;-75
2023/04/07 06:34:41;;;;;;;8.83;7.07;;;4.40;99.90;;;;;;4880005;29;20292;-74
2023/04/07 06:37:11;;;;;;;9.33;7.47;;;4.50;99.90;;;;;;4879863;29;20218;-73
2023/04/07 06:39:39;;;;;;;9.53;7.30;;;4.50;99.90;;;;;;4916695;29;20209;-73
2023/04/07 06:42:07;;;;;;;10.27;7.13;;;4.50;99.90;;;;;;4902886;29;20224;-73
2023/04/07 06:44:35;;;;;;;10.00;7.50;;;4.60;99.90;;;;;;4884277;29;20634;-73
2023/04/07 06:47:03;;;;;;;8.70;6.70;;;4.60;99.90;;;;;;4879153;29;20225;-74
2023/04/07 06:49:31;;;;;;;9.03;6.83;;;4.80;99.90;;;;;;4879543;29;20214;-73
2023/04/07 06:52:01;;;;;;;7.43;6.67;;;4.90;99.90;;;;;;4879385;29;20558;-74
2023/04/07 06:54:30;;;;;;;7.30;6.53;;;5.00;99.90;;;;;;4879951;29;20760;-74
2023/04/07 06:57:00;;;;;;;8.63;6.70;;;5.10;99.90;;;;;;4880067;29;20388;-75
2023/04/07 06:59:28;;;;;;;8.83;6.67;;;5.30;99.90;;;;;;4879816;29;20217;-74
2023/04/07 07:01:56;;;;;;;11.03;6.47;;;5.40;99.90;;;;;;4879134;29;20229;-73
2023/04/07 07:04:25;;;;;;;10.63;6.67;;;5.60;99.90;;;;;;4879055;29;20544;-74
2023/04/07 07:06:54;;;;;;;7.00;6.30;;;5.80;99.90;;;;;;4879031;29;20220;-74
2023/04/07 07:09:22;;;;;;;9.57;6.50;;;6.00;99.90;;;;;;4879770;29;20214;-74
2023/04/07 07:11:52;;;;;;;8.10;5.97;;;6.40;99.90;;;;;;4878614;29;20242;-76
2023/04/07 07:14:20;;;;;;;8.07;6.57;;;6.80;99.90;;;;;;4879262;29;20234;-74
2023/04/07 07:16:48;;;;;;;8.07;6.13;;;7.30;99.90;;;;;;4880451;29;20214;-75
2023/04/07 07:19:16;;;;;;;7.37;5.77;;;8.00;99.90;;;;;;4880109;29;20214;-74
2023/04/07 07:21:44;;;;;;;6.23;5.63;;;8.50;99.90;;;;;;4879237;29;20237;-75
2023/04/07 07:24:13;;;;;;;6.20;5.57;;;9.10;99.90;;;;;;4879089;29;20622;-74
2023/04/07 07:26:41;;;;;;;8.10;6.63;;;9.40;99.90;;;;;;4879415;29;20218;-73
2023/04/07 07:29:12;;;;;;;10.20;7.73;;;9.80;99.90;;;;;;4879007;29;20273;-74
2023/04/07 07:31:40;;;;;;;7.33;5.67;;;10.30;99.90;;;;;;4879070;29;20221;-74
2023/04/07 07:34:08;;;;;;;5.43;4.93;;;10.20;99.90;;;;;;4878039;29;20712;-73
2023/04/07 07:36:37;;;;;;;9.17;5.90;;;10.30;99.90;;;;;;4878393;29;20212;-74
2023/04/07 07:39:05;;;;;;;6.97;5.70;;;10.20;99.90;;;;;;4879665;29;20214;-75
2023/04/07 07:41:33;;;;;;;7.30;5.93;;;10.00;99.90;;;;;;4897115;29;20213;-73
2023/04/07 07:44:01;;;;;;;7.00;5.20;;;9.70;99.90;;;;;;4895912;29;20213;-74
2023/04/07 07:46:31;;;;;;;7.43;5.93;;;10.10;99.90;;;;;;4896797;29;20214;-74
2023/04/07 07:48:59;;;;;;;21.87;18.10;;;10.80;99.90;;;;;;4896980;29;20304;-75
2023/04/07 07:51:27;;;;;;;27.00;22.13;;;11.20;99.90;;;;;;4896704;29;20675;-74
2023/04/07 07:53:56;;;;;;;14.40;12.40;;;11.90;99.90;;;;;;4881546;29;20735;-74
2023/04/07 07:56:23;;;;;;;10.87;9.67;;;12.00;99.90;;;;;;4878316;29;20214;-74
2023/04/07 07:58:51;;;;;;;12.03;9.70;;;12.30;99.90;;;;;;4878215;29;20221;-74
2023/04/07 08:01:20;;;;;;;8.73;7.50;;;12.90;98.10;;;;;;4878243;29;20221;-74
2023/04/07 08:03:49;;;;;;;6.93;5.13;;;12.50;98.30;;;;;;4878018;29;20221;-75
2023/04/07 08:06:18;;;;;;;6.90;5.67;;;12.70;98.00;;;;;;4878150;29;20672;-74
2023/04/07 08:08:45;;;;;;;9.60;8.60;;;13.00;97.80;;;;;;4877899;29;20740;-75
2023/04/07 08:11:14;;;;;;;8.17;6.83;;;13.40;95.90;;;;;;4877427;29;20258;-74
2023/04/07 08:13:44;;;;;;;7.53;6.00;;;13.60;96.10;;;;;;4877997;29;20218;-74
2023/04/07 08:16:12;;;;;;;6.73;5.97;;;13.60;95.90;;;;;;4878443;29;20270;-74
2023/04/07 08:18:40;;;;;;;7.80;6.30;;;13.80;95.10;;;;;;4882109;29;20286;-73
2023/04/07 08:21:13;;;;;;;10.57;8.07;;;12.90;94.80;;;;;;4878521;29;20210;-74
2023/04/07 08:23:41;;;;;;;7.90;6.73;;;12.70;97.40;;;;;;4879301;29;20205;-74
2023/04/07 08:26:12;;;;;;;7.60;6.17;;;12.50;97.00;;;;;;4881633;29;20606;-74
2023/04/07 08:28:40;;;;;;;11.53;9.20;;;12.30;97.50;;;;;;4886061;29;20219;-75
2023/04/07 08:31:08;;;;;;;6.67;5.90;;;12.70;97.40;;;;;;4881704;29;20218;-75
2023/04/07 08:33:36;;;;;;;7.40;6.50;;;13.10;97.70;;;;;;4880987;29;20254;-74
2023/04/07 08:36:05;;;;;;;7.37;6.67;;;12.60;95.50;;;;;;4881067;29;20270;-75
2023/04/07 08:38:34;;;;;;;21.13;15.00;;;12.30;97.30;;;;;;4883327;29;20267;-74
2023/04/07 08:41:04;;;;;;;8.17;7.30;;;12.40;99.50;;;;;;4881164;29;20214;-75
2023/04/07 08:43:35;;;;;;;8.47;6.37;;;12.50;98.50;;;;;;4880667;29;20238;-75
2023/04/07 08:46:03;;;;;;;9.70;7.73;;;13.00;97.30;;;;;;4881148;29;20309;-74
2023/04/07 08:48:33;;;;;;;6.63;5.93;;;12.90;97.60;;;;;;4881119;29;20220;-74
2023/04/07 08:51:07;;;;;;;7.00;6.30;;;12.30;97.50;;;;;;4881723;29;20218;-75
2023/04/07 08:53:42;;;;;;;9.63;6.10;;;13.00;99.80;;;;;;4882446;29;20198;-75
2023/04/07 08:56:12;;;;;;;7.77;6.67;;;13.20;97.50;;;;;;4881145;29;20305;-74
2023/04/07 08:58:40;;;;;;;7.93;7.00;;;13.20;97.40;;;;;;4881649;29;20221;-74
2023/04/07 09:01:09;;;;;;;7.70;6.90;;;12.50;99.90;;;;;;4881011;29;20218;-74
2023/04/07 09:03:38;;;;;;;9.87;8.10;;;11.70;99.60;;;;;;4880802;29;20230;-74
2023/04/07 09:06:06;;;;;;;8.00;7.20;;;11.90;99.80;;;;;;4881145;29;20210;-74
2023/04/07 09:08:36;;;;;;;9.47;8.27;;;11.70;99.90;;;;;;4880593;29;20687;-74
2023/04/07 09:11:04;;;;;;;8.30;6.90;;;11.80;99.90;;;;;;4880639;29;20249;-74
2023/04/07 09:13:32;;;;;;;8.20;7.23;;;11.80;99.90;;;;;;4880294;29;20297;-73
2023/04/07 09:16:02;;;;;;;11.80;9.13;;;12.10;99.30;;;;;;4880706;29;20559;-74
2023/04/07 09:18:31;;;;;;;10.30;7.60;;;12.30;99.60;;;;;;4880899;29;20261;-75
2023/04/07 09:21:01;;;;;;;9.60;8.00;;;12.40;99.20;;;;;;4880474;29;20220;-75
2023/04/07 09:23:32;;;;;;;8.63;6.83;;;12.40;98.70;;;;;;4880228;29;20211;-74
2023/04/07 09:26:17;;;;;;;7.57;6.77;;;12.30;99.90;;;;;;4880480;29;20194;-75
2023/04/07 09:28:47;;;;;;;8.60;6.93;;;12.50;99.90;;;;;;4886061;29;20213;-74
2023/04/07 09:31:15;;;;;;;9.03;6.87;;;12.40;97.30;;;;;;4881797;29;20380;-76
2023/04/07 09:33:43;;;;;;;8.03;7.03;;;11.70;99.90;;;;;;4880309;29;20261;-74
2023/04/07 09:36:11;;;;;;;9.20;7.30;;;12.10;99.90;;;;;;4880993;29;20273;-75
2023/04/07 09:38:41;;;;;;;8.30;6.97;;;12.30;99.50;;;;;;4899406;29;20248;-75
2023/04/07 09:41:12;;;;;;;10.23;7.00;;;12.60;99.00;;;;;;4891672;29;20210;-75
2023/04/07 09:43:41;;;;;;;9.97;7.20;;;12.90;98.60;;;;;;4881199;29;20214;-75
2023/04/07 09:46:11;;;;;;;7.90;6.77;;;12.90;96.70;;;;;;4880363;29;20546;-75
2023/04/07 09:48:40;;;;;;;10.03;7.27;;;13.00;97.50;;;;;;4883643;29;20217;-73
2023/04/07 09:51:10;;;;;;;8.10;7.10;;;13.30;95.80;;;;;;4898833;29;20604;-75
2023/04/07 09:53:47;;;;;;;8.83;7.30;;;12.90;97.60;;;;;;4898556;29;20213;-74
2023/04/07 09:56:18;;;;;;;8.00;7.23;;;12.90;95.00;;;;;;4898465;29;20672;-75
2023/04/07 09:58:50;;;;;;;8.50;7.10;;;12.70;97.80;;;;;;4887310;29;20224;-74
2023/04/07 10:01:18;;;;;;;7.50;6.70;;;12.90;97.90;;;;;;4880125;29;20245;-74
2023/04/07 10:03:49;;;;;;;9.40;7.63;;;13.00;96.30;;;;;;4879668;29;20643;-74
2023/04/07 10:06:19;;;;;;;8.33;6.90;;;13.00;96.60;;;;;;4879966;29;20210;-75
2023/04/07 10:08:47;;;;;;;7.33;6.60;;;13.70;97.00;;;;;;4879797;29;20213;-75
2023/04/07 10:11:17;;;;;;;8.43;7.27;;;13.30;94.90;;;;;;4879359;29;20250;-74
2023/04/07 10:13:46;;;;;;;8.53;7.20;;;12.50;95.10;;;;;;4879074;29;20218;-74
2023/04/07 10:16:15;;;;;;;7.60;6.80;;;12.50;98.20;;;;;;4879436;29;20258;-74
2023/04/07 10:18:43;;;;;;;7.67;6.87;;;12.30;98.20;;;;;;4879261;29;20221;-74
2023/04/07 10:21:14;;;;;;;9.90;7.37;;;12.20;98.90;;;;;;4879466;29;20214;-74
2023/04/07 10:23:53;;;;;;;8.77;7.83;;;12.20;99.80;;;;;;4879224;29;20673;-74
2023/04/07 10:26:26;;;;;;;8.27;7.23;;;12.30;98.80;;;;;;4879135;29;20294;-74
2023/04/07 10:29:00;;;;;;;7.83;7.03;;;12.50;97.80;;;;;;4880082;29;20205;-74
2023/04/07 10:31:29;;;;;;;8.07;6.93;;;12.60;97.50;;;;;;4880240;29;20289;-74
2023/04/07 10:33:57;;;;;;;9.03;7.00;;;13.00;95.70;;;;;;4879049;29;20669;-74
2023/04/07 10:36:27;;;;;;;9.60;7.40;;;12.80;95.60;;;;;;4893198;29;20233;-74
2023/04/07 10:39:23;;;;;;;10.00;8.50;;;13.20;96.40;;;;;;4898923;29;20321;-74
2023/04/07 10:41:53;;;;;;;9.57;8.00;;;13.60;95.00;;;;;;4897155;29;20304;-74
2023/04/07 10:44:48;;;;;;;9.13;7.33;;;14.00;94.90;;;;;;4879687;29;20496;-74
2023/04/07 10:47:17;;;;;;;8.13;7.33;;;14.10;95.50;;;;;;4879139;29;20202;-74
2023/04/07 10:50:18;;;;;;;7.90;7.10;;;14.60;93.70;;;;;;4879091;29;20225;-74
2023/04/07 10:53:04;;;;;;;9.67;7.73;;;14.80;91.80;;;;;;4880088;29;20301;-74
2023/04/07 10:55:37;;;;;;;11.20;9.60;;;14.60;90.40;;;;;;4880077;29;20218;-74
2023/04/07 10:58:23;;;;;;;8.37;7.27;;;14.30;90.40;;;;;;4880098;29;20342;-75
2023/04/07 11:01:18;;;;;;;8.43;7.20;;;14.80;91.00;;;;;;4879256;29;20206;-74
2023/04/07 11:04:00;;;;;;;9.53;7.70;;;14.40;91.50;;;;;;4878569;29;20218;-74
2023/04/07 11:06:30;;;;;;;8.50;7.10;;;13.80;92.30;;;;;;4879004;29;20206;-74
2023/04/07 11:08:58;;;;;;;8.60;7.70;;;13.80;91.70;;;;;;4878486;29;20218;-75
2023/04/07 11:11:38;;;;;;;8.57;7.33;;;14.00;91.60;;;;;;4878585;29;20249;-75
2023/04/07 11:14:08;;;;;;;8.63;7.50;;;14.30;92.10;;;;;;4878435;29;20296;-74
2023/04/07 11:16:39;;;;;;;8.50;7.70;;;13.80;93.80;;;;;;4878801;29;20234;-74
2023/04/07 11:19:07;;;;;;;8.27;7.27;;;13.80;92.10;;;;;;4878415;29;20250;-73
2023/04/07 11:21:35;;;;;;;10.87;9.63;;;13.50;93.00;;;;;;4878519;29;20337;-73
2023/04/07 11:24:04;;;;;;;8.50;7.63;;;14.00;93.00;;;;;;4878118;29;20261;-74
2023/04/07 11:26:38;;;;;;;17.00;12.47;;;13.70;93.10;;;;;;4878582;29;20297;-74
2023/04/07 11:29:09;;;;;;;9.33;7.90;;;13.80;91.20;;;;;;4878402;29;20202;-74
2023/04/07 11:31:38;;;;;;;8.90;7.90;;;14.10;92.20;;;;;;4878681;29;20216;-73
2023/04/07 11:34:07;;;;;;;8.10;7.30;;;13.60;91.70;;;;;;4884418;29;20293;-74
2023/04/07 11:36:39;;;;;;;8.40;7.50;;;13.60;92.80;;;;;;4895583;29;20703;-74
2023/04/07 11:39:19;;;;;;;8.17;7.30;;;13.60;91.80;;;;;;4897310;29;20197;-74
2023/04/07 11:41:48;;;;;;;9.30;7.87;;;13.60;91.60;;;;;;4897060;29;20206;-74
2023/04/07 11:44:18;;;;;;;8.50;7.43;;;13.30;91.10;;;;;;4894966;29;20273;-75
2023/04/07 11:46:56;;;;;;;9.00;7.40;;;13.50;92.30;;;;;;4878613;29;20214;-74
2023/04/07 11:49:26;;;;;;;9.00;7.90;;;13.70;92.20;;;;;;4878284;29;20213;-74
2023/04/07 11:52:01;;;;;;;8.97;8.07;;;13.90;93.10;;;;;;4878297;29;20214;-75
2023/04/07 11:54:40;;;;;;;10.73;7.83;;;13.60;91.30;;;;;;4878143;29;20214;-74
2023/04/07 11:57:11;;;;;;;8.87;7.97;;;13.80;91.50;;;;;;4878309;29;20237;-76
2023/04/07 11:59:41;;;;;;;27.40;18.57;;;13.30;93.10;;;;;;4881734;29;20246;-75
2023/04/07 12:02:09;;;;;;;8.73;7.83;;;13.50;92.50;;;;;;4882001;29;20301;-75
2023/04/07 12:04:39;;;;;;;9.80;8.80;;;13.10;92.50;;;;;;4882248;29;20214;-75
2023/04/07 12:07:08;;;;;;;8.60;7.77;;;13.00;93.70;;;;;;4881884;29;20676;-75
2023/04/07 12:09:38;;;;;;;13.97;10.73;;;13.20;94.00;;;;;;4884205;29;20266;-75
2023/04/07 12:12:08;;;;;;;8.70;7.50;;;13.30;94.40;;;;;;4881915;29;20283;-74
2023/04/07 12:14:37;;;;;;;8.50;7.70;;;13.50;93.00;;;;;;4881780;29;20205;-75
2023/04/07 12:17:08;;;;;;;8.60;7.70;;;13.20;92.90;;;;;;4881505;29;20310;-75
2023/04/07 12:19:38;;;;;;;11.83;9.50;;;13.10;92.60;;;;;;4883728;29;20297;-74
2023/04/07 12:22:06;;;;;;;8.10;7.17;;;13.10;92.70;;;;;;4886224;29;20713;-74
2023/04/07 12:24:34;;;;;;;9.70;8.17;;;13.10;92.30;;;;;;4885212;29;20736;-75
2023/04/07 12:27:03;;;;;;;7.73;6.93;;;13.10;94.30;;;;;;4883609;29;20608;-73
2023/04/07 12:29:31;;;;;;;9.23;7.73;;;13.70;92.50;;;;;;4882022;29;20585;-75
2023/04/07 12:31:59;;;;;;;8.33;7.40;;;13.70;90.50;;;;;;4881833;29;20696;-74
2023/04/07 12:34:29;;;;;;;8.50;7.03;;;13.80;91.50;;;;;;4886636;29;20282;-73
2023/04/07 12:36:57;;;;;;;7.07;6.23;;;13.10;92.40;;;;;;4881986;29;20235;-74
2023/04/07 12:39:26;;;;;;;7.07;6.40;;;13.50;92.60;;;;;;4882362;29;20243;-74
2023/04/07 12:41:54;;;;;;;7.80;7.00;;;13.50;91.80;;;;;;4881158;29;20218;-73
2023/04/07 12:44:22;;;;;;;7.93;7.03;;;13.10;92.20;;;;;;4881417;29;20214;-74
2023/04/07 12:46:51;;;;;;;7.23;6.50;;;13.20;93.90;;;;;;4881216;29;20225;-74
2023/04/07 12:49:18;;;;;;;9.23;7.27;;;13.40;93.30;;;;;;4881150;29;20676;-75
2023/04/07 12:51:50;;;;;;;7.30;6.50;;;13.20;93.20;;;;;;4880727;29;20669;-73
2023/04/07 12:54:18;;;;;;;8.73;7.83;;;13.10;93.40;;;;;;4881302;29;20293;-76
2023/04/07 12:56:46;;;;;;;7.70;6.90;;;12.50;92.70;;;;;;4882906;29;20347;-74
2023/04/07 12:59:15;;;;;;;8.50;7.20;;;12.70;92.40;;;;;;4885119;29;20210;-74